Agat, GU

7:46 AM ChST on September 24, 2014 (GMT +1000)
Ordot Dump | Change Station
CLOSE
Current Station
Personal Weather Station
Location: Chalan Pago Ordot,
Elevation: 282 ft
Nearby Weather Stations

Elev 282 ft 13.44 °N, 144.75 °E | Updated 14 seconds ago

Scattered Clouds
Scattered Clouds
82.0 °F
Feels Like 92 °F
N
2.9
Wind Variable Wind from WNW
Gusts 6.0 mph

Today
High -- | Low -- °F
--% Chance of Precip.
Yesterday
High -- | Low -- °F
Precip. -- in
6:10 AM 6:16 PM
Waning Crescent, 0% visible
Pressure 29.68 in
Visibility 10.0 miles
Clouds Few 1400 ft
Scattered Clouds 2100 ft
Scattered Clouds 6000 ft
Heat Index 92 °F
Dew Point 79 °F
Humidity 91%
Rainfall 0.05 in
Snow Depth Not available.
UV 0 out of 12
Pollen Not available.
Air Quality Not available.
Flu Activity Not available.
METAR PGUM 232054Z 31009KT 10SM FEW014 SCT021 SCT060 28/26 A2970 RMK AO2 SLP048 60000 T02780256 53009

More Conditions Fewer Conditions

Pressure 29.68 in
Visibility 10.0 miles
Clouds Few 1400 ft
Scattered Clouds 2100 ft
Scattered Clouds 6000 ft
Heat Index 92 °F
Dew Point 79 °F
Humidity 91%
Rainfall 0.05 in
Snow Depth Not available.
UV 0 out of 12
Pollen Not available.
Air Quality Not available.
Flu Activity Not available.
METAR PGUM 232054Z 31009KT 10SM FEW014 SCT021 SCT060 28/26 A2970 RMK AO2 SLP048 60000 T02780256 53009

More Conditions Fewer Conditions

10-Day Weather Forecast

Almanac

Astronomy

Sep. 24, 2014 Rise Set
Actual Time 6:10 AM ChST 6:16 PM ChST
Civil Twilight 5:49 AM ChST 6:37 PM ChST
Nautical Twilight 5:24 AM ChST 7:02 PM ChST
Astronomical Twilight 4:59 AM ChST 7:27 PM ChST
Moon 5:53 AM ChST (9/24) 6:11 PM ChST (9/24)
Length of Visible Light 12h 48m
Length of Day
12h 05m
Tomorrow will be 0m 44s shorter.
Waning Crescent, 0% of the Moon is Illuminated
Sep 23
Waning Crescent
Sep 24
New
Oct 1
First Quarter
Oct 8
Full
Oct 15
Last Quarter

Community

WunderPhotos

Upload Photos

1,755,794 photos uploaded!

WunderBlogs® & News

By Dr. Jeff Masters
Director of Meteorology, Weather Underground
By Kari Strenfel
Meteorologist, Weather Underground
By Christopher C. Burt
Weather Historian, Weather Underground
September 23, 2014
September 23, 2014
September 23, 2014

Nearby

Snow Depth

Station Depth Elevation
No new snow has been reported.

Earthquake Activity

City Distance Mag. Time & Date
No recent earthquake activity has been reported nearby.
Minimum magnitude displayed is 2.5.

Coastal Water Temperatures

Place Temperature
No Stations Reporting

Nearby Weather Stations